createdAt,value
2022-08-08T00:01:06.635Z,8.20
2022-08-08T00:03:47.305Z,8.53
2022-08-08T00:06:28.549Z,8.50
2022-08-08T00:09:07.761Z,7.63
2022-08-08T00:12:03.002Z,9.20
2022-08-08T00:14:48.566Z,7.87
2022-08-08T00:17:47.981Z,8.70
2022-08-08T00:20:27.538Z,7.33
2022-08-08T00:23:01.750Z,8.50
2022-08-08T00:25:39.067Z,10.23
2022-08-08T00:28:34.593Z,8.57
2022-08-08T00:32:19.949Z,9.10
2022-08-08T00:34:20.438Z,9.20
2022-08-08T00:36:54.960Z,9.00
2022-08-08T00:41:11.327Z,9.13
2022-08-08T00:42:43.734Z,9.37
2022-08-08T00:45:48.216Z,9.13
2022-08-08T00:48:42.421Z,9.10
2022-08-08T00:52:05.463Z,8.80
2022-08-08T00:54:42.874Z,9.87
2022-08-08T00:57:34.686Z,10.00
2022-08-08T01:00:10.619Z,8.53
2022-08-08T01:03:59.948Z,8.13
2022-08-08T01:06:27.542Z,8.40
2022-08-08T01:09:36.801Z,9.00
2022-08-08T01:12:37.533Z,9.60
2022-08-08T01:15:47.448Z,9.20
2022-08-08T01:18:53.207Z,7.90
2022-08-08T01:22:09.800Z,8.30
2022-08-08T01:24:53.759Z,8.33
2022-08-08T01:28:00.103Z,7.63
2022-08-08T01:30:58.713Z,8.33
2022-08-08T01:34:01.057Z,8.97
2022-08-08T01:37:06.089Z,7.50
2022-08-08T01:40:06.501Z,6.97
2022-08-08T01:42:48.911Z,7.67
2022-08-08T01:45:54.480Z,7.87
2022-08-08T01:48:43.848Z,7.80
2022-08-08T01:52:02.143Z,7.73
2022-08-08T01:55:19.161Z,7.80
2022-08-08T01:58:04.536Z,7.30
2022-08-08T02:00:18.694Z,7.90
2022-08-08T02:03:50.484Z,8.50
2022-08-08T02:06:32.495Z,6.87
2022-08-08T02:09:17.647Z,7.73
2022-08-08T02:11:59.052Z,6.80
2022-08-08T02:14:55.303Z,7.70
2022-08-08T02:17:36.729Z,8.23
2022-08-08T02:21:00.627Z,9.03
2022-08-08T02:23:19.791Z,7.60
2022-08-08T02:25:51.911Z,7.50
2022-08-08T02:28:34.669Z,8.10
2022-08-08T02:31:19.769Z,7.67
2022-08-08T02:34:08.354Z,8.73
2022-08-08T02:36:41.560Z,9.30
2022-08-08T02:39:40.756Z,8.23
2022-08-08T02:42:42.119Z,8.33
2022-08-08T02:45:29.552Z,8.20
2022-08-08T02:48:38.005Z,7.60
2022-08-08T02:51:55.155Z,8.27
2022-08-08T02:55:10.412Z,8.60
2022-08-08T02:58:17.727Z,9.13
2022-08-08T03:01:32.755Z,7.63
2022-08-08T03:05:04.804Z,8.20
2022-08-08T03:08:06.715Z,8.33
2022-08-08T03:10:57.303Z,7.17
2022-08-08T03:15:57.396Z,8.17
2022-08-08T03:16:43.391Z,7.90
2022-08-08T03:19:29.830Z,8.03
2022-08-08T03:21:59.884Z,7.77
2022-08-08T03:24:31.190Z,7.77
2022-08-08T03:27:07.959Z,7.90
2022-08-08T03:29:55.348Z,7.47
2022-08-08T03:32:42.199Z,7.80
2022-08-08T03:35:15.877Z,7.40
2022-08-08T03:38:54.352Z,7.80
2022-08-08T03:40:33.335Z,7.37
2022-08-08T03:43:16.433Z,7.13
2022-08-08T03:46:05.604Z,7.87
2022-08-08T03:49:54.934Z,7.67
2022-08-08T03:51:50.791Z,7.97
2022-08-08T03:54:41.827Z,7.77
2022-08-08T03:58:09.556Z,7.73
2022-08-08T04:00:11.124Z,7.10
2022-08-08T04:02:55.632Z,7.17
2022-08-08T04:05:28.296Z,7.03
2022-08-08T04:07:58.498Z,7.27
2022-08-08T04:10:32.055Z,7.13
2022-08-08T04:13:08.289Z,6.87
2022-08-08T04:15:54.762Z,7.27
2022-08-08T04:18:41.994Z,6.40
2022-08-08T04:21:13.725Z,7.77
2022-08-08T04:24:05.812Z,7.23
2022-08-08T04:26:56.782Z,7.03
2022-08-08T04:29:26.900Z,7.70
2022-08-08T04:31:59.581Z,6.23
2022-08-08T04:34:32.160Z,6.80
2022-08-08T04:37:12.170Z,6.20
2022-08-08T04:40:03.480Z,7.03
2022-08-08T04:42:31.554Z,7.00
2022-08-08T04:45:02.214Z,7.37
2022-08-08T04:47:30.765Z,7.23
2022-08-08T04:50:04.668Z,7.10
2022-08-08T04:52:36.116Z,7.20
2022-08-08T04:55:13.274Z,7.40
2022-08-08T04:57:43.152Z,5.73
2022-08-08T05:00:14.260Z,7.87
2022-08-08T05:02:48.866Z,6.70
2022-08-08T05:05:44.310Z,6.90
2022-08-08T05:08:12.712Z,5.70
2022-08-08T05:10:42.271Z,6.90
2022-08-08T05:13:17.537Z,6.30
2022-08-08T05:16:49.331Z,5.90
2022-08-08T05:18:36.882Z,6.07
2022-08-08T05:21:06.253Z,5.83
2022-08-08T05:23:41.454Z,7.40
2022-08-08T05:26:14.958Z,6.03
2022-08-08T05:28:57.211Z,7.17
2022-08-08T05:32:05.097Z,6.13
2022-08-08T05:34:27.116Z,6.30
2022-08-08T05:36:56.452Z,6.30
2022-08-08T05:39:28.525Z,6.00
2022-08-08T05:41:59.607Z,6.00
2022-08-08T05:44:31.413Z,5.50
2022-08-08T05:47:02.983Z,5.60
2022-08-08T05:49:32.164Z,5.10
2022-08-08T05:52:07.162Z,5.33
2022-08-08T05:54:50.317Z,4.93
2022-08-08T05:58:04.292Z,4.63
2022-08-08T06:00:23.086Z,4.60
2022-08-08T06:03:17.182Z,5.00
2022-08-08T06:05:56.639Z,6.10
2022-08-08T06:08:34.623Z,5.30
2022-08-08T06:11:08.265Z,6.60
2022-08-08T06:13:47.542Z,4.90
2022-08-08T06:16:27.202Z,5.30
2022-08-08T06:19:16.674Z,4.60
2022-08-08T06:21:57.147Z,3.50
2022-08-08T06:24:47.149Z,4.10
2022-08-08T06:27:25.241Z,3.50
2022-08-08T06:30:01.175Z,3.73
2022-08-08T06:32:47.510Z,3.10
2022-08-08T06:36:04.693Z,2.67
2022-08-08T06:38:14.668Z,2.80
2022-08-08T06:40:53.802Z,3.50
2022-08-08T06:43:28.647Z,2.87
2022-08-08T06:46:04.380Z,3.47
2022-08-08T06:48:38.255Z,3.07
2022-08-08T06:51:08.486Z,2.93
2022-08-08T06:53:40.096Z,3.30
2022-08-08T06:56:23.169Z,3.40
2022-08-08T06:58:51.620Z,3.67
2022-08-08T07:02:16.921Z,3.40
2022-08-08T07:04:39.932Z,4.03
2022-08-08T07:07:11.384Z,3.37
2022-08-08T07:09:59.210Z,3.60
2022-08-08T07:12:36.626Z,3.60
2022-08-08T07:15:07.715Z,3.27
2022-08-08T07:18:01.569Z,3.20
2022-08-08T07:20:50.762Z,2.80
2022-08-08T07:23:24.194Z,3.20
2022-08-08T07:25:57.434Z,3.00
2022-08-08T07:28:31.639Z,3.10
2022-08-08T07:31:02.953Z,3.17
2022-08-08T07:33:38.194Z,3.20
2022-08-08T07:36:21.083Z,2.90
2022-08-08T07:38:53.398Z,3.37
2022-08-08T07:41:24.949Z,3.30
2022-08-08T07:43:58.827Z,4.10
2022-08-08T07:46:30.911Z,3.00
2022-08-08T07:49:05.281Z,3.60
2022-08-08T07:51:44.812Z,3.47
2022-08-08T07:54:32.933Z,2.93
2022-08-08T07:57:12.298Z,2.93
2022-08-08T07:59:53.340Z,2.70
2022-08-08T08:02:36.712Z,2.53
2022-08-08T08:05:16.347Z,3.30
2022-08-08T08:07:52.873Z,2.80
2022-08-08T08:10:30.862Z,3.20
2022-08-08T08:13:25.474Z,2.90
2022-08-08T08:16:01.655Z,3.27
2022-08-08T08:18:40.726Z,3.30
2022-08-08T08:21:35.496Z,3.63
2022-08-08T08:24:11.202Z,2.37
2022-08-08T08:26:46.866Z,2.37
2022-08-08T08:31:57.710Z,2.27
2022-08-08T08:34:32.585Z,2.53
2022-08-08T08:37:03.534Z,2.20
2022-08-08T08:39:59.690Z,2.53
2022-08-08T08:42:35.537Z,2.70
2022-08-08T08:45:10.124Z,2.20
2022-08-08T08:47:54.008Z,2.07
2022-08-08T08:50:33.520Z,2.30
2022-08-08T08:53:27.340Z,2.10
2022-08-08T08:56:03.061Z,2.40
2022-08-08T08:58:42.826Z,2.40
2022-08-08T09:01:16.603Z,2.13
2022-08-08T09:03:50.922Z,2.00
2022-08-08T09:06:33.442Z,2.20
2022-08-08T09:09:07.413Z,1.70
2022-08-08T09:12:01.424Z,1.70
2022-08-08T09:14:42.288Z,2.10
2022-08-08T09:17:18.335Z,1.87
2022-08-08T09:21:58.259Z,2.53
2022-08-08T09:22:36.679Z,3.03
2022-08-08T09:25:10.340Z,1.97
2022-08-08T09:27:55.897Z,2.70
2022-08-08T09:30:29.690Z,2.77
2022-08-08T09:33:55.686Z,2.13
2022-08-08T09:35:51.200Z,2.23
2022-08-08T09:38:32.812Z,2.60
2022-08-08T09:41:06.118Z,2.40
2022-08-08T09:44:05.396Z,2.70
2022-08-08T09:46:31.244Z,2.30
2022-08-08T09:49:18.142Z,2.67
2022-08-08T09:52:07.199Z,3.27
2022-08-08T09:54:44.173Z,1.90
2022-08-08T09:57:17.318Z,2.27
2022-08-08T10:00:02.067Z,2.57
2022-08-08T10:02:44.896Z,1.80
2022-08-08T10:05:22.694Z,2.60
2022-08-08T10:07:59.823Z,2.40
2022-08-08T10:10:30.381Z,2.03
2022-08-08T10:13:06.075Z,2.13
2022-08-08T10:16:00.289Z,1.60
2022-08-08T10:18:32.956Z,1.47
2022-08-08T10:21:22.598Z,2.10
2022-08-08T10:23:58.867Z,2.10
2022-08-08T10:26:57.438Z,2.40
2022-08-08T10:29:23.279Z,2.10
2022-08-08T10:32:15.735Z,2.00
2022-08-08T10:35:00.434Z,1.93
2022-08-08T10:37:30.611Z,1.80
2022-08-08T10:39:59.776Z,2.10
2022-08-08T10:42:35.622Z,1.90
2022-08-08T10:45:08.880Z,2.07
2022-08-08T10:47:43.900Z,2.30
2022-08-08T10:50:17.866Z,2.53
2022-08-08T10:52:45.458Z,9.47
2022-08-08T10:55:15.660Z,1.90
2022-08-08T10:58:05.908Z,1.83
2022-08-08T11:00:40.767Z,2.70
2022-08-08T11:03:36.432Z,2.07
2022-08-08T11:06:12.348Z,2.27
2022-08-08T11:08:50.167Z,2.00
2022-08-08T11:11:31.619Z,2.13
2022-08-08T11:14:03.748Z,1.77
2022-08-08T11:16:34.547Z,2.03
2022-08-08T11:19:03.994Z,1.90
2022-08-08T11:21:37.806Z,1.90
2022-08-08T11:24:07.239Z,1.83
2022-08-08T11:26:38.397Z,2.43
2022-08-08T11:29:41.574Z,1.80
2022-08-08T11:32:14.173Z,2.23
2022-08-08T11:35:07.404Z,2.10
2022-08-08T11:38:34.654Z,2.10
2022-08-08T11:40:26.616Z,2.07
2022-08-08T11:42:55.581Z,1.80
2022-08-08T11:45:24.261Z,1.80
2022-08-08T11:48:04.347Z,1.60
2022-08-08T11:50:33.726Z,1.80
2022-08-08T11:53:05.749Z,2.03
2022-08-08T11:55:36.145Z,2.30
2022-08-08T11:58:14.223Z,1.97
2022-08-08T12:00:47.169Z,1.50
2022-08-08T12:03:21.238Z,1.57
2022-08-08T12:05:49.802Z,1.77
2022-08-08T12:08:30.460Z,1.80
2022-08-08T12:11:02.603Z,1.60
2022-08-08T12:13:38.163Z,1.40
2022-08-08T12:16:20.374Z,1.70
2022-08-08T12:18:58.865Z,1.60
2022-08-08T12:21:59.919Z,1.57
2022-08-08T12:24:20.572Z,1.63
2022-08-08T12:26:57.034Z,1.60
2022-08-08T12:29:40.535Z,1.50
2022-08-08T12:32:13.189Z,1.90
2022-08-08T12:34:45.913Z,1.53
2022-08-08T12:37:20.645Z,1.60
2022-08-08T12:39:59.813Z,1.53
2022-08-08T12:42:33.610Z,1.80
2022-08-08T12:45:53.615Z,1.40
2022-08-08T12:48:10.549Z,1.77
2022-08-08T12:50:54.836Z,1.30
2022-08-08T12:53:30.188Z,1.27
2022-08-08T12:56:18.313Z,1.30
2022-08-08T12:58:54.613Z,1.40
2022-08-08T13:01:36.375Z,1.90
2022-08-08T13:04:19.299Z,1.80
2022-08-08T13:07:16.963Z,1.43
2022-08-08T13:10:04.018Z,1.50
2022-08-08T13:12:40.526Z,1.50
2022-08-08T13:15:12.137Z,1.67
2022-08-08T13:18:08.781Z,1.43
2022-08-08T13:20:29.507Z,1.80
2022-08-08T13:23:30.264Z,1.20
2022-08-08T13:25:58.799Z,1.50
2022-08-08T13:28:32.609Z,1.60
2022-08-08T13:31:04.206Z,1.37
2022-08-08T13:33:42.076Z,1.87
2022-08-08T13:36:11.617Z,0.97
2022-08-08T13:38:39.755Z,1.50
2022-08-08T13:41:16.820Z,1.70
2022-08-08T13:43:47.420Z,1.73
2022-08-08T13:46:27.152Z,2.07
2022-08-08T13:50:33.392Z,1.43
2022-08-08T13:51:55.971Z,2.07
2022-08-08T13:54:29.577Z,1.67
2022-08-08T13:57:08.408Z,1.40
2022-08-08T13:59:39.785Z,1.40
2022-08-08T14:02:20.794Z,2.17
2022-08-08T14:05:09.301Z,1.40
2022-08-08T14:07:52.189Z,1.67
2022-08-08T14:10:33.613Z,1.67
2022-08-08T14:13:30.942Z,2.10
2022-08-08T14:16:04.056Z,1.30
2022-08-08T14:18:34.790Z,2.27
2022-08-08T14:21:12.563Z,1.77
2022-08-08T14:24:07.049Z,1.70
2022-08-08T14:26:33.375Z,2.30
2022-08-08T14:29:01.445Z,1.80
2022-08-08T14:32:06.135Z,1.43
2022-08-08T14:34:23.220Z,1.83
2022-08-08T14:36:55.481Z,1.87
2022-08-08T14:39:24.854Z,2.03
2022-08-08T14:42:03.183Z,2.10
2022-08-08T14:44:35.300Z,2.37
2022-08-08T14:47:20.898Z,1.83
2022-08-08T14:50:05.909Z,1.90
2022-08-08T14:52:42.910Z,1.97
2022-08-08T14:55:10.897Z,1.30
2022-08-08T14:58:03.006Z,1.70
2022-08-08T15:00:27.858Z,1.67
2022-08-08T15:03:15.026Z,1.80
2022-08-08T15:05:53.654Z,1.63
2022-08-08T15:08:34.476Z,2.33
2022-08-08T15:11:04.512Z,2.10
2022-08-08T15:13:39.663Z,2.00
2022-08-08T15:16:11.727Z,1.63
2022-08-08T15:18:44.096Z,1.90
2022-08-08T15:21:17.925Z,1.80
2022-08-08T15:23:51.131Z,1.77
2022-08-08T15:26:19.782Z,1.90
2022-08-08T15:28:52.932Z,1.53
2022-08-08T15:31:48.973Z,2.00
2022-08-08T15:34:29.603Z,1.30
2022-08-08T15:36:59.388Z,1.37
2022-08-08T15:39:31.656Z,1.70
2022-08-08T15:42:06.939Z,1.67
2022-08-08T15:44:38.708Z,1.70
2022-08-08T15:47:07.270Z,1.80
2022-08-08T15:49:47.621Z,1.40
2022-08-08T15:52:16.400Z,1.60
2022-08-08T15:54:48.031Z,1.83
2022-08-08T15:57:19.707Z,1.47
2022-08-08T16:00:06.324Z,1.43
2022-08-08T16:02:50.478Z,1.70
2022-08-08T16:05:23.623Z,1.60
2022-08-08T16:07:53.852Z,1.70
2022-08-08T16:13:04.572Z,1.40
2022-08-08T16:13:30.450Z,1.50
2022-08-08T16:16:09.373Z,1.30
2022-08-08T16:18:41.304Z,1.40
2022-08-08T16:21:26.101Z,1.50
2022-08-08T16:23:55.528Z,1.40
2022-08-08T16:26:34.702Z,3.43
2022-08-08T16:29:07.925Z,1.33
2022-08-08T16:31:37.386Z,1.47
2022-08-08T16:34:05.678Z,1.67
2022-08-08T16:36:34.663Z,1.40
2022-08-08T16:39:09.906Z,1.60
2022-08-08T16:41:51.323Z,1.30
2022-08-08T16:44:27.976Z,1.37
2022-08-08T16:47:16.258Z,1.10
2022-08-08T16:49:43.858Z,2.00
2022-08-08T16:55:04.695Z,1.70
2022-08-08T16:55:42.450Z,1.43
2022-08-08T16:58:14.950Z,2.30
2022-08-08T17:00:37.074Z,1.57
2022-08-08T17:03:04.867Z,1.87
2022-08-08T17:05:44.693Z,1.80
2022-08-08T17:08:14.289Z,1.40
2022-08-08T17:10:57.971Z,1.33
2022-08-08T17:13:41.227Z,1.40
2022-08-08T17:16:22.046Z,1.73
2022-08-08T17:18:52.258Z,1.13
2022-08-08T17:21:21.398Z,1.60
2022-08-08T17:24:01.946Z,1.13
2022-08-08T17:26:30.573Z,1.20
2022-08-08T17:28:58.851Z,1.57
2022-08-08T17:31:44.517Z,1.60
2022-08-08T17:34:48.199Z,1.63
2022-08-08T17:37:03.910Z,1.60
2022-08-08T17:40:04.656Z,1.60
2022-08-08T17:42:25.867Z,1.47
2022-08-08T17:44:54.387Z,1.27
2022-08-08T17:47:28.207Z,1.40
2022-08-08T17:50:06.145Z,1.90
2022-08-08T17:52:35.573Z,1.70
2022-08-08T17:56:03.825Z,1.50
2022-08-08T17:57:55.249Z,1.20
2022-08-08T18:00:30.101Z,1.40
2022-08-08T18:03:08.406Z,1.10
2022-08-08T18:05:48.638Z,1.70
2022-08-08T18:08:24.419Z,1.60
2022-08-08T18:11:09.156Z,1.47
2022-08-08T18:13:41.470Z,1.10
2022-08-08T18:16:09.854Z,1.60
2022-08-08T18:18:42.416Z,1.37
2022-08-08T18:21:35.082Z,1.27
2022-08-08T18:24:00.946Z,1.20
2022-08-08T18:26:31.056Z,1.60
2022-08-08T18:29:00.981Z,1.13
2022-08-08T18:31:29.370Z,1.90
2022-08-08T18:34:11.534Z,1.60
2022-08-08T18:36:44.876Z,1.40
2022-08-08T18:39:27.761Z,2.27
2022-08-08T18:42:03.311Z,1.77
2022-08-08T18:44:32.939Z,1.77
2022-08-08T18:47:02.658Z,1.90
2022-08-08T18:49:32.695Z,2.10
2022-08-08T18:52:18.760Z,1.60
2022-08-08T18:55:00.149Z,1.87
2022-08-08T18:57:40.956Z,1.50
2022-08-08T19:00:15.919Z,1.50
2022-08-08T19:02:55.488Z,2.53
2022-08-08T19:05:31.914Z,1.70
2022-08-08T19:08:24.358Z,2.50
2022-08-08T19:10:56.035Z,1.80
2022-08-08T19:13:25.273Z,1.80
2022-08-08T19:16:06.870Z,2.07
2022-08-08T19:18:51.778Z,1.60
2022-08-08T19:21:30.535Z,1.93
2022-08-08T19:24:00.991Z,1.83
2022-08-08T19:26:34.167Z,1.70
2022-08-08T19:29:03.191Z,1.83
2022-08-08T19:31:35.290Z,1.90
2022-08-08T19:34:29.789Z,1.67
2022-08-08T19:36:53.381Z,1.53
2022-08-08T19:39:23.639Z,2.10
2022-08-08T19:41:52.160Z,2.33
2022-08-08T19:44:26.819Z,2.43
2022-08-08T19:47:08.918Z,2.03
2022-08-08T19:49:37.818Z,2.63
2022-08-08T19:52:06.788Z,2.13
2022-08-08T19:54:34.779Z,2.17
2022-08-08T19:57:07.585Z,2.30
2022-08-08T19:59:39.252Z,2.43
2022-08-08T20:02:07.180Z,2.20
2022-08-08T20:04:38.833Z,2.20
2022-08-08T20:08:30.626Z,2.10
2022-08-08T20:09:57.119Z,1.67
2022-08-08T20:12:32.066Z,2.17
2022-08-08T20:15:14.510Z,2.23
2022-08-08T20:17:45.884Z,2.73
2022-08-08T20:20:19.204Z,2.60
2022-08-08T20:22:48.732Z,3.17
2022-08-08T20:25:20.849Z,2.30
2022-08-08T20:27:49.409Z,3.10
2022-08-08T20:30:52.738Z,1.90
2022-08-08T20:33:18.540Z,2.53
2022-08-08T20:35:58.787Z,2.13
2022-08-08T20:38:32.375Z,2.37
2022-08-08T20:41:05.813Z,2.50
2022-08-08T20:43:44.007Z,2.23
2022-08-08T20:46:17.511Z,3.03
2022-08-08T20:48:48.857Z,2.53
2022-08-08T20:51:17.511Z,2.50
2022-08-08T20:53:58.041Z,2.40
2022-08-08T20:56:34.618Z,2.77
2022-08-08T20:59:05.859Z,3.67
2022-08-08T21:02:05.363Z,4.10
2022-08-08T21:04:23.513Z,2.33
2022-08-08T21:06:55.149Z,2.87
2022-08-08T21:09:22.742Z,2.07
2022-08-08T21:12:03.038Z,2.30
2022-08-08T21:14:34.544Z,2.40
2022-08-08T21:17:06.294Z,1.57
2022-08-08T21:19:45.571Z,1.70
2022-08-08T21:22:15.958Z,1.73
2022-08-08T21:24:53.624Z,1.70
2022-08-08T21:28:05.081Z,2.23
2022-08-08T21:30:18.596Z,1.80
2022-08-08T21:32:51.832Z,2.07
2022-08-08T21:36:14.405Z,1.93
2022-08-08T21:38:16.344Z,1.90
2022-08-08T21:40:56.356Z,2.03
2022-08-08T21:43:25.688Z,1.87
2022-08-08T21:48:05.192Z,1.90
2022-08-08T21:48:50.965Z,2.47
2022-08-08T21:54:17.732Z,1.57
2022-08-08T21:54:35.370Z,2.13
2022-08-08T21:56:57.305Z,2.10
2022-08-08T21:59:28.510Z,2.03
2022-08-08T22:02:15.823Z,1.97
2022-08-08T22:04:45.211Z,2.33
2022-08-08T22:07:12.896Z,2.03
2022-08-08T22:09:41.265Z,2.40
2022-08-08T22:12:14.980Z,1.97
2022-08-08T22:14:50.051Z,1.67
2022-08-08T22:17:19.135Z,2.10
2022-08-08T22:20:11.981Z,2.07
2022-08-08T22:22:38.143Z,1.70
2022-08-08T22:25:12.217Z,1.93
2022-08-08T22:28:03.688Z,1.90
2022-08-08T22:30:40.156Z,1.80
2022-08-08T22:34:11.070Z,1.73
2022-08-08T22:36:12.954Z,2.30
2022-08-08T22:38:47.990Z,2.50
2022-08-08T22:41:21.182Z,2.27
2022-08-08T22:44:05.493Z,2.07
2022-08-08T22:46:34.369Z,1.93
2022-08-08T22:49:06.380Z,2.10
2022-08-08T22:51:42.468Z,1.90
2022-08-08T22:54:33.908Z,1.90
2022-08-08T22:57:01.887Z,1.90
2022-08-08T22:59:48.438Z,1.80
2022-08-08T23:02:28.519Z,2.30
2022-08-08T23:05:02.054Z,1.60
2022-08-08T23:07:51.597Z,1.70
2022-08-08T23:10:25.486Z,1.63
2022-08-08T23:12:54.516Z,2.20
2022-08-08T23:16:42.018Z,2.30
2022-08-08T23:18:11.684Z,1.83
2022-08-08T23:20:41.079Z,1.73
2022-08-08T23:23:13.175Z,2.00
2022-08-08T23:25:48.368Z,2.00
2022-08-08T23:28:18.057Z,2.20
2022-08-08T23:30:46.890Z,2.40
2022-08-08T23:33:21.150Z,1.93
2022-08-08T23:36:08.092Z,2.10
2022-08-08T23:38:44.060Z,1.80
2022-08-08T23:41:23.298Z,2.30
2022-08-08T23:43:56.481Z,2.27
2022-08-08T23:49:08.139Z,1.83
2022-08-08T23:49:18.400Z,2.17
2022-08-08T23:52:04.577Z,2.20
2022-08-08T23:54:42.275Z,2.33
2022-08-08T23:57:26.805Z,2.20
